Time;durP1;ratioP1;P1;durP2;ratioP2;P2;SDS_P1;SDS_P2;PMS_P1;PMS_P2;Temp;Humidity;BMP_temperature;BMP_pressure;BME280_temperature;BME280_humidity;BME280_pressure;Samples;Min_cycle;Max_cycle;Signal;HPM_P1;HPM_P2
2022/01/25 00:10:40;;;;;;;10.50;4.10;;;20.10;54.50;;;;;;4383465;32;20213;-65
2022/01/25 00:24:23;;;;;;;11.23;3.60;;;20.00;54.60;;;;;;4383044;32;20094;-66
2022/01/25 00:27:05;;;;;;;9.05;3.35;;;19.90;54.50;;;;;;4382938;32;20486;-66
2022/01/25 00:32:13;;;;;;;9.23;3.47;;;19.90;54.70;;;;;;4383390;32;20079;-65
2022/01/25 00:34:39;;;;;;;11.18;3.30;;;19.90;54.70;;;;;;4382012;32;20123;-66
2022/01/25 00:37:05;;;;;;;10.57;3.60;;;19.90;54.60;;;;;;4382727;32;20522;-66
2022/01/25 00:39:31;;;;;;;11.40;3.53;;;19.90;54.70;;;;;;4382596;32;20091;-66
2022/01/25 00:41:57;;;;;;;10.57;3.90;;;19.80;54.70;;;;;;4382516;32;20529;-66
2022/01/25 00:44:24;;;;;;;10.63;3.50;;;19.80;54.60;;;;;;4382984;32;20090;-66
2022/01/25 00:46:50;;;;;;;11.90;3.55;;;19.80;54.70;;;;;;4382678;32;20126;-66
2022/01/25 00:49:26;;;;;;;7.50;3.20;;;19.80;54.70;;;;;;4383049;32;20075;-66
2022/01/25 00:54:29;;;;;;;9.38;4.28;;;19.80;54.80;;;;;;4382553;32;20063;-66
2022/01/25 00:56:56;;;;;;;7.68;3.15;;;19.80;54.80;;;;;;4382453;32;20507;-65
2022/01/25 00:59:26;;;;;;;7.50;3.45;;;19.70;54.70;;;;;;4384719;32;20210;-65
2022/01/25 01:01:56;;;;;;;9.05;3.15;;;19.70;54.80;;;;;;4385296;32;20091;-66
2022/01/25 01:04:24;;;;;;;9.73;3.90;;;19.70;54.80;;;;;;4385594;32;20102;-66
2022/01/25 01:06:51;;;;;;;6.75;3.25;;;19.70;54.80;;;;;;4385264;32;20668;-66
2022/01/25 01:09:19;;;;;;;9.43;3.40;;;19.70;54.80;;;;;;4385604;32;20097;-66
2022/01/25 01:36:33;;;;;;;8.57;3.35;;;19.50;54.80;;;;;;4385269;32;20090;-65
2022/01/25 01:44:01;;;;;;;8.13;3.47;;;19.50;54.80;;;;;;4385143;32;20083;-66
2022/01/25 01:48:59;;;;;;;6.53;2.83;;;19.50;54.80;;;;;;4384592;32;20091;-66
2022/01/25 01:51:33;;;;;;;5.40;2.83;;;19.50;54.80;;;;;;4384854;32;20167;-65
2022/01/25 01:54:09;;;;;;;7.13;3.40;;;19.50;54.80;;;;;;4384634;32;20283;-65
2022/01/25 01:56:36;;;;;;;7.10;3.35;;;19.50;54.80;;;;;;4385086;32;20213;-65
2022/01/25 01:59:06;;;;;;;6.47;3.10;;;19.40;54.80;;;;;;4384384;32;20091;-66
2022/01/25 02:01:35;;;;;;;9.43;3.20;;;19.40;54.80;;;;;;4384909;32;20094;-66
2022/01/25 02:04:02;;;;;;;6.13;2.92;;;19.40;54.80;;;;;;4384708;32;20083;-66
2022/01/25 02:06:29;;;;;;;6.60;2.88;;;19.40;54.80;;;;;;4371185;32;20087;-65
2022/01/25 02:08:55;;;;;;;5.35;3.05;;;19.40;54.80;;;;;;4384615;32;20154;-66
2022/01/25 02:11:21;;;;;;;7.20;3.10;;;19.40;54.80;;;;;;4384098;32;20118;-66
2022/01/25 02:13:47;;;;;;;6.55;3.05;;;19.40;54.80;;;;;;4384560;32;20225;-66
2022/01/25 02:16:33;;;;;;;4.57;2.70;;;19.40;54.80;;;;;;4384226;32;20175;-66
2022/01/25 02:24:30;;;;;;;6.53;3.28;;;19.30;54.80;;;;;;4384746;32;20198;-66
2022/01/25 02:26:57;;;;;;;5.85;3.00;;;19.30;54.80;;;;;;4384150;32;20237;-66
2022/01/25 02:29:23;;;;;;;5.65;2.83;;;19.30;54.70;;;;;;4384589;32;20091;-66
2022/01/25 02:31:49;;;;;;;6.45;3.10;;;19.30;54.70;;;;;;4384524;32;20079;-66
2022/01/25 02:34:15;;;;;;;7.90;3.15;;;19.30;54.80;;;;;;4384113;32;20097;-65
2022/01/25 02:36:41;;;;;;;6.38;2.90;;;19.30;54.80;;;;;;4384346;32;20410;-66
2022/01/25 02:39:07;;;;;;;7.95;3.22;;;19.30;54.80;;;;;;4369938;32;20229;-66
2022/01/25 02:41:33;;;;;;;4.70;2.85;;;19.30;54.80;;;;;;4384214;32;20071;-65
2022/01/25 02:43:59;;;;;;;4.50;2.92;;;19.20;54.70;;;;;;4383812;32;20178;-66
2022/01/25 02:49:07;;;;;;;9.68;3.28;;;19.30;54.80;;;;;;4384113;32;20083;-66
2022/01/25 02:51:42;;;;;;;5.68;3.35;;;19.20;54.80;;;;;;4384380;32;20064;-65
2022/01/25 02:54:10;;;;;;;5.43;3.22;;;19.20;54.80;;;;;;4383510;32;20089;-66
2022/01/25 02:56:37;;;;;;;4.80;3.10;;;19.20;54.80;;;;;;4383963;32;20170;-66
2022/01/25 02:59:05;;;;;;;5.00;3.00;;;19.20;54.80;;;;;;4383467;32;20495;-66
2022/01/25 03:01:32;;;;;;;4.70;2.90;;;19.20;54.80;;;;;;4370498;32;20075;-66
2022/01/25 03:03:58;;;;;;;11.02;3.50;;;19.20;54.80;;;;;;4384026;32;20494;-66
2022/01/25 03:06:24;;;;;;;7.13;3.22;;;19.20;54.80;;;;;;4383793;32;20082;-66
2022/01/25 03:08:51;;;;;;;5.07;3.00;;;19.20;54.80;;;;;;4387230;32;20201;-66
2022/01/25 03:11:18;;;;;;;7.85;3.47;;;19.20;54.80;;;;;;4397297;32;20098;-66
2022/01/25 03:13:53;;;;;;;4.80;2.90;;;19.20;54.80;;;;;;4398803;32;20071;-65
2022/01/25 03:16:46;;;;;;;5.68;2.90;;;19.10;54.80;;;;;;4398183;32;20087;-66
2022/01/25 03:22:18;;;;;;;6.10;2.88;;;19.10;54.80;;;;;;4336292;33;20111;-66
2022/01/25 03:24:45;;;;;;;5.22;3.20;;;19.10;54.80;;;;;;4387976;32;20141;-66
2022/01/25 03:27:11;;;;;;;5.82;2.83;;;19.10;54.80;;;;;;4398253;32;20071;-66
2022/01/25 03:29:37;;;;;;;4.95;2.97;;;19.10;54.80;;;;;;4398333;32;20105;-66
2022/01/25 03:32:04;;;;;;;6.93;3.45;;;19.10;54.80;;;;;;4398537;32;20161;-65
2022/01/25 03:34:30;;;;;;;7.10;3.10;;;19.10;54.80;;;;;;4398730;32;20135;-65
2022/01/25 03:36:56;;;;;;;3.97;2.90;;;19.10;54.80;;;;;;4398388;32;20482;-66
2022/01/25 03:39:22;;;;;;;4.45;2.95;;;19.00;54.80;;;;;;4397802;32;20081;-66
2022/01/25 03:41:48;;;;;;;6.47;3.10;;;19.10;54.90;;;;;;4398471;32;20161;-66
2022/01/25 03:44:16;;;;;;;5.35;3.60;;;19.00;54.80;;;;;;4398306;32;20070;-66
2022/01/25 03:51:53;;;;;;;4.65;3.00;;;19.00;54.80;;;;;;4398750;32;20074;-65
2022/01/25 03:54:19;;;;;;;3.78;2.40;;;19.00;54.80;;;;;;4398094;32;20599;-66
2022/01/25 03:56:46;;;;;;;5.45;3.03;;;19.00;54.80;;;;;;4397361;32;20097;-66
2022/01/25 03:59:12;;;;;;;4.85;3.05;;;19.00;54.80;;;;;;4398153;32;20075;-66
2022/01/25 04:01:38;;;;;;;5.03;3.03;;;19.00;54.80;;;;;;4398446;32;20075;-66
2022/01/25 04:04:15;;;;;;;4.07;2.58;;;19.00;54.80;;;;;;4398364;32;20409;-65
2022/01/25 04:06:45;;;;;;;4.82;3.05;;;19.00;54.80;;;;;;4398370;32;20547;-65
2022/01/25 04:09:11;;;;;;;4.60;2.92;;;18.90;54.80;;;;;;4398042;32;20165;-66
2022/01/25 04:11:37;;;;;;;5.07;2.63;;;18.90;54.80;;;;;;4398190;32;20201;-66
2022/01/25 04:14:04;;;;;;;3.58;2.60;;;18.90;54.80;;;;;;4398192;32;20502;-64
2022/01/25 04:16:35;;;;;;;3.25;2.65;;;18.90;54.80;;;;;;4398137;32;20122;-66
2022/01/25 04:19:13;;;;;;;5.70;2.90;;;18.90;54.80;;;;;;4398248;32;20586;-66
2022/01/25 04:26:53;;;;;;;3.78;2.95;;;18.90;54.80;;;;;;4398382;32;20383;-65
2022/01/25 04:29:19;;;;;;;4.15;2.63;;;18.90;54.80;;;;;;4397732;32;20090;-66
2022/01/25 04:31:45;;;;;;;4.50;3.20;;;18.90;54.80;;;;;;4398039;32;20071;-66
2022/01/25 04:37:01;;;;;;;4.22;3.00;;;18.90;54.80;;;;;;4400919;32;20114;-66
2022/01/25 04:50:56;;;;;;;3.47;2.72;;;18.80;54.80;;;;;;4400657;32;20086;-66
2022/01/25 04:53:33;;;;;;;5.22;3.20;;;18.80;54.80;;;;;;4400029;32;20126;-66
2022/01/25 04:56:12;;;;;;;3.35;2.70;;;18.80;54.80;;;;;;4400552;32;20127;-64
2022/01/25 04:58:50;;;;;;;4.57;2.78;;;18.80;54.80;;;;;;4400299;32;20094;-65
2022/01/25 05:01:17;;;;;;;4.00;2.65;;;18.70;54.80;;;;;;4400575;32;20095;-66
2022/01/25 05:06:25;;;;;;;4.32;2.90;;;18.70;54.80;;;;;;4400340;32;20085;-66
2022/01/25 05:08:54;;;;;;;3.47;2.58;;;18.70;54.80;;;;;;4400604;32;20414;-66
2022/01/25 05:11:28;;;;;;;4.88;2.75;;;18.70;54.80;;;;;;4400253;32;20210;-66
2022/01/25 05:16:37;;;;;;;3.85;2.88;;;18.70;54.80;;;;;;4400517;32;20071;-66
2022/01/25 05:24:16;;;;;;;5.15;3.05;;;18.70;54.90;;;;;;4400746;32;20094;-65
2022/01/25 05:26:42;;;;;;;4.60;2.67;;;18.70;54.90;;;;;;4400065;32;20094;-66
2022/01/25 05:29:08;;;;;;;3.38;2.67;;;18.70;54.80;;;;;;4400439;32;20067;-65
2022/01/25 05:31:35;;;;;;;3.83;2.50;;;18.60;54.80;;;;;;4386462;32;20430;-66
2022/01/25 05:34:02;;;;;;;3.47;2.75;;;18.60;54.80;;;;;;4400398;32;20140;-66
2022/01/25 05:36:27;;;;;;;3.30;2.55;;;18.60;54.80;;;;;;4386393;32;20071;-65
2022/01/25 05:38:57;;;;;;;3.63;2.60;;;18.60;54.80;;;;;;4386873;32;20490;-66
2022/01/25 05:41:27;;;;;;;4.35;2.70;;;18.60;54.80;;;;;;4399915;32;20086;-66
2022/01/25 05:46:21;;;;;;;4.43;3.00;;;18.60;54.80;;;;;;4399388;32;20182;-66
2022/01/25 05:48:47;;;;;;;2.88;2.58;;;18.60;54.80;;;;;;4399878;32;20157;-65
2022/01/25 05:51:13;;;;;;;3.20;2.90;;;18.60;54.80;;;;;;4386516;32;20164;-66
2022/01/25 05:53:42;;;;;;;3.15;2.60;;;18.60;54.80;;;;;;4399830;32;20090;-66
2022/01/25 05:56:09;;;;;;;3.13;2.65;;;18.60;54.80;;;;;;4399880;32;20075;-65
2022/01/25 05:58:36;;;;;;;3.30;2.72;;;18.60;54.80;;;;;;4399366;32;20153;-66
2022/01/25 06:01:02;;;;;;;4.03;2.88;;;18.60;54.90;;;;;;4400086;32;20098;-66
2022/01/25 06:03:28;;;;;;;3.92;2.53;;;18.50;54.80;;;;;;4399644;32;20773;-66
2022/01/25 06:05:53;;;;;;;3.70;2.80;;;18.60;54.90;;;;;;4400119;32;20059;-66
2022/01/25 06:08:19;;;;;;;3.33;2.80;;;18.50;54.80;;;;;;4399675;32;20413;-66
2022/01/25 06:10:45;;;;;;;2.85;2.50;;;18.50;54.80;;;;;;4399671;32;20158;-64
2022/01/25 06:13:11;;;;;;;2.83;2.17;;;18.50;54.90;;;;;;4399913;32;20517;-65
2022/01/25 06:15:37;;;;;;;5.63;2.88;;;18.50;54.90;;;;;;4399628;32;20114;-65
2022/01/25 06:18:03;;;;;;;3.92;2.70;;;18.50;54.90;;;;;;4399636;32;20055;-65
2022/01/25 06:20:29;;;;;;;2.78;2.50;;;18.50;54.90;;;;;;4399275;32;20067;-66
2022/01/25 06:22:55;;;;;;;3.72;2.55;;;18.50;54.90;;;;;;4385838;32;20079;-65
2022/01/25 06:25:21;;;;;;;4.43;2.92;;;18.50;54.90;;;;;;4399950;32;20225;-66
2022/01/25 06:27:47;;;;;;;3.08;2.65;;;18.50;54.90;;;;;;4399225;32;20098;-65
2022/01/25 06:30:17;;;;;;;3.50;2.67;;;18.40;54.80;;;;;;4385946;32;20091;-66
2022/01/25 06:32:45;;;;;;;4.25;2.65;;;18.40;54.80;;;;;;4399412;32;20079;-66
2022/01/25 06:35:11;;;;;;;3.25;2.75;;;18.40;54.90;;;;;;4399729;32;20138;-66
2022/01/25 06:37:37;;;;;;;3.00;2.70;;;18.40;54.80;;;;;;4399280;32;20114;-66
2022/01/25 06:40:04;;;;;;;3.13;2.80;;;18.40;54.80;;;;;;4399530;32;20185;-66
2022/01/25 06:42:31;;;;;;;2.85;2.53;;;18.40;54.90;;;;;;4399226;32;20103;-66
2022/01/25 06:45:04;;;;;;;3.28;2.65;;;18.40;54.80;;;;;;4399213;32;20150;-65
2022/01/25 06:47:30;;;;;;;2.78;2.45;;;18.40;54.90;;;;;;4399365;32;20087;-66
2022/01/25 06:49:57;;;;;;;3.60;2.50;;;18.40;54.90;;;;;;4385354;32;20621;-66
2022/01/25 06:52:23;;;;;;;3.78;2.70;;;18.40;54.90;;;;;;4399098;32;20082;-66
2022/01/25 06:54:49;;;;;;;2.83;2.35;;;18.40;54.90;;;;;;4384954;32;20087;-66
2022/01/25 06:57:16;;;;;;;4.45;2.85;;;18.40;54.90;;;;;;4398604;32;20075;-66
2022/01/25 06:59:41;;;;;;;3.13;2.58;;;18.40;54.90;;;;;;4398885;32;20059;-66
2022/01/25 07:02:08;;;;;;;2.88;2.40;;;18.40;54.90;;;;;;4398969;32;20055;-65
2022/01/25 07:04:34;;;;;;;3.45;2.60;;;18.40;54.90;;;;;;4398644;32;20426;-65
2022/01/25 07:07:00;;;;;;;3.45;2.67;;;18.40;54.90;;;;;;4398953;32;20138;-65
2022/01/25 07:09:28;;;;;;;3.38;2.50;;;18.30;54.90;;;;;;4399187;32;20089;-65
2022/01/25 07:11:54;;;;;;;3.53;2.55;;;18.30;54.90;;;;;;4398507;32;20231;-66
2022/01/25 07:14:20;;;;;;;2.95;2.65;;;18.30;54.90;;;;;;4385113;32;20067;-65
2022/01/25 07:16:46;;;;;;;3.38;2.35;;;18.30;54.90;;;;;;4398654;32;20086;-66
2022/01/25 07:19:13;;;;;;;2.85;2.33;;;18.30;54.90;;;;;;4398361;32;20074;-66
2022/01/25 07:21:39;;;;;;;3.10;2.50;;;18.30;54.90;;;;;;4398462;32;20094;-65
2022/01/25 07:24:06;;;;;;;3.20;2.28;;;18.30;54.90;;;;;;4398942;32;20071;-65
2022/01/25 07:26:32;;;;;;;3.78;2.55;;;18.30;54.90;;;;;;4398862;32;20090;-65
2022/01/25 07:28:58;;;;;;;2.60;2.40;;;18.30;54.90;;;;;;4398113;32;20087;-66
2022/01/25 07:31:24;;;;;;;3.42;2.55;;;18.30;55.00;;;;;;4398614;32;20075;-65
2022/01/25 07:33:50;;;;;;;4.03;2.35;;;18.30;55.00;;;;;;4398058;32;20587;-66
2022/01/25 07:36:15;;;;;;;7.18;5.55;;;18.30;55.10;;;;;;4398910;32;20078;-66
2022/01/25 07:38:41;;;;;;;14.88;10.02;;;18.20;54.80;;;;;;4398406;32;20588;-66
2022/01/25 07:41:07;;;;;;;18.20;14.57;;;18.20;54.00;;;;;;4398442;32;20508;-66
2022/01/25 07:43:34;;;;;;;17.33;13.65;;;18.20;52.90;;;;;;4398898;32;20090;-66
2022/01/25 07:46:04;;;;;;;14.90;11.73;;;18.20;52.60;;;;;;4397878;32;20095;-66
2022/01/25 07:48:30;;;;;;;14.93;12.25;;;18.10;52.70;;;;;;4398737;32;20202;-66
2022/01/25 07:50:56;;;;;;;14.23;11.73;;;18.10;52.90;;;;;;4398226;32;20255;-66
2022/01/25 07:53:22;;;;;;;13.55;10.93;;;18.10;53.10;;;;;;4398650;32;20082;-66
2022/01/25 07:55:48;;;;;;;13.23;10.77;;;18.10;53.00;;;;;;4398041;32;20422;-66
2022/01/25 07:58:15;;;;;;;11.88;9.93;;;18.10;53.10;;;;;;4398493;32;20220;-66
2022/01/25 08:00:41;;;;;;;14.90;10.43;;;18.10;53.20;;;;;;4398531;32;20200;-66
2022/01/25 08:03:07;;;;;;;15.95;9.82;;;18.10;53.30;;;;;;4397956;32;20089;-66
2022/01/25 08:05:33;;;;;;;11.38;9.20;;;18.10;53.20;;;;;;4398433;32;20233;-66
2022/01/25 08:08:00;;;;;;;11.02;9.00;;;18.10;53.20;;;;;;4397616;32;20394;-67
2022/01/25 08:10:26;;;;;;;11.18;8.40;;;18.20;53.30;;;;;;4398606;32;20071;-66
2022/01/25 08:12:52;;;;;;;13.02;7.97;;;18.20;53.30;;;;;;4398192;32;20455;-66
2022/01/25 08:15:18;;;;;;;10.65;7.45;;;18.20;53.30;;;;;;4384407;32;20071;-66
2022/01/25 08:17:44;;;;;;;9.85;7.15;;;18.30;53.30;;;;;;4398239;32;20123;-66
2022/01/25 08:20:10;;;;;;;10.73;7.10;;;18.30;54.20;;;;;;4397721;32;20280;-66
2022/01/25 08:22:36;;;;;;;8.80;6.32;;;18.40;53.10;;;;;;4398078;32;20118;-66
2022/01/25 08:25:04;;;;;;;10.20;6.60;;;18.50;52.90;;;;;;4397509;32;20093;-66
2022/01/25 08:27:31;;;;;;;9.98;6.38;;;18.60;52.60;;;;;;4397612;32;20075;-66
2022/01/25 08:29:57;;;;;;;7.30;6.00;;;18.70;52.40;;;;;;4397313;32;20161;-66
2022/01/25 08:32:22;;;;;;;7.40;5.40;;;18.90;52.20;;;;;;4397472;32;20498;-66
2022/01/25 08:34:49;;;;;;;9.20;5.15;;;19.00;52.00;;;;;;4383782;32;20130;-67
2022/01/25 08:37:15;;;;;;;6.47;4.40;;;19.10;51.80;;;;;;4397958;32;20127;-66
2022/01/25 08:39:41;;;;;;;7.55;4.68;;;19.20;51.60;;;;;;4397991;32;20122;-66
2022/01/25 08:42:08;;;;;;;7.45;4.28;;;19.30;51.30;;;;;;4397455;32;20658;-66
2022/01/25 08:44:35;;;;;;;9.98;4.07;;;19.50;51.10;;;;;;4384204;32;20071;-66
2022/01/25 08:47:02;;;;;;;4.32;3.58;;;19.60;50.90;;;;;;4397639;32;20209;-66
2022/01/25 08:49:30;;;;;;;7.10;3.85;;;19.70;50.60;;;;;;4397974;32;20083;-65
2022/01/25 08:51:57;;;;;;;3.60;3.30;;;19.80;50.40;;;;;;4397731;32;20102;-66
2022/01/25 08:54:23;;;;;;;6.10;4.05;;;19.90;50.00;;;;;;4398008;32;20640;-66
2022/01/25 08:56:49;;;;;;;4.13;3.30;;;20.10;49.90;;;;;;4397454;32;20241;-66
2022/01/25 08:59:16;;;;;;;4.35;3.47;;;20.20;49.60;;;;;;4397932;32;20089;-65
2022/01/25 09:01:41;;;;;;;5.22;3.33;;;20.30;49.40;;;;;;4398158;32;20067;-65
2022/01/25 09:04:07;;;;;;;3.67;2.97;;;20.40;49.10;;;;;;4397708;32;20067;-65
2022/01/25 09:06:34;;;;;;;5.32;3.00;;;20.50;48.90;;;;;;4397740;32;20410;-65
2022/01/25 09:09:02;;;;;;;7.45;3.25;;;20.60;48.80;;;;;;4384074;32;20090;-66
2022/01/25 09:11:28;;;;;;;3.80;2.75;;;20.60;48.70;;;;;;4397751;32;20111;-66
2022/01/25 09:13:54;;;;;;;7.57;3.78;;;20.60;48.80;;;;;;4397741;32;20071;-66
2022/01/25 09:16:20;;;;;;;5.60;4.05;;;20.60;48.70;;;;;;4397815;32;20138;-65
2022/01/25 09:18:46;;;;;;;8.25;3.85;;;20.60;48.70;;;;;;4397871;32;20063;-66
2022/01/25 09:21:12;;;;;;;5.93;3.95;;;20.60;48.80;;;;;;4399883;32;20088;-66
2022/01/25 09:23:38;;;;;;;7.88;3.72;;;20.70;48.80;;;;;;4400755;32;20070;-66
2022/01/25 09:26:04;;;;;;;5.55;3.47;;;20.80;48.70;;;;;;4399963;32;20074;-66
2022/01/25 09:28:31;;;;;;;5.07;3.50;;;20.80;48.60;;;;;;4400486;32;20275;-65
2022/01/25 09:30:57;;;;;;;5.72;3.10;;;20.90;48.50;;;;;;4399929;32;20075;-65
2022/01/25 09:33:25;;;;;;;5.70;3.15;;;21.00;48.40;;;;;;4400463;32;20525;-65
2022/01/25 09:35:53;;;;;;;5.13;3.38;;;21.10;48.20;;;;;;4400087;32;20256;-66
2022/01/25 09:38:20;;;;;;;4.43;2.90;;;21.30;48.00;;;;;;4399765;32;20087;-66
2022/01/25 09:40:46;;;;;;;4.90;2.97;;;21.30;47.90;;;;;;4386557;32;20071;-65
2022/01/25 09:43:12;;;;;;;5.18;2.95;;;21.40;47.70;;;;;;4385916;32;20083;-65
2022/01/25 09:45:40;;;;;;;5.30;2.90;;;21.50;47.60;;;;;;4399396;32;20233;-65
2022/01/25 09:48:07;;;;;;;7.25;2.88;;;21.50;47.60;;;;;;4385457;32;20169;-65
2022/01/25 09:50:34;;;;;;;6.68;3.25;;;21.50;47.70;;;;;;4399409;32;20098;-66
2022/01/25 09:53:00;;;;;;;6.50;2.88;;;21.40;47.90;;;;;;4399135;32;20071;-66
2022/01/25 09:55:31;;;;;;;8.43;2.92;;;21.40;48.10;;;;;;4385570;32;20095;-65
2022/01/25 09:57:57;;;;;;;6.43;2.90;;;21.30;48.30;;;;;;4399477;32;20189;-65
2022/01/25 10:00:28;;;;;;;4.60;3.03;;;21.20;48.40;;;;;;4400161;32;20620;-64
2022/01/25 10:03:12;;;;;;;6.97;3.03;;;21.20;48.60;;;;;;4399484;32;20067;-65
2022/01/25 10:05:42;;;;;;;5.60;3.15;;;21.10;48.80;;;;;;4400162;32;20091;-65
2022/01/25 10:08:13;;;;;;;4.80;3.45;;;21.00;48.90;;;;;;4399863;32;20486;-64
2022/01/25 10:10:52;;;;;;;6.80;5.18;;;20.90;49.00;;;;;;4399821;32;20091;-64
2022/01/25 10:13:23;;;;;;;6.13;5.25;;;20.90;49.00;;;;;;4399710;32;20067;-64
2022/01/25 10:16:19;;;;;;;8.15;5.43;;;20.70;49.00;;;;;;4400031;32;20257;-65
2022/01/25 10:18:50;;;;;;;10.20;4.95;;;20.60;49.10;;;;;;4399587;32;20086;-65
2022/01/25 10:21:18;;;;;;;9.25;5.50;;;20.60;49.20;;;;;;4399468;32;20516;-65
2022/01/25 10:24:07;;;;;;;6.95;4.55;;;20.50;49.10;;;;;;4399732;32;20145;-65
2022/01/25 10:26:41;;;;;;;9.02;4.15;;;20.50;49.20;;;;;;4399603;32;20075;-64
2022/01/25 10:29:13;;;;;;;7.15;4.55;;;20.60;49.20;;;;;;4399454;32;20067;-65
2022/01/25 10:31:45;;;;;;;8.82;3.53;;;20.60;49.20;;;;;;4399227;32;20497;-65
2022/01/25 10:34:13;;;;;;;6.72;3.63;;;20.60;49.10;;;;;;4399653;32;20200;-65
2022/01/25 10:36:46;;;;;;;4.60;3.33;;;20.70;49.00;;;;;;4399564;32;20079;-65
2022/01/25 10:39:21;;;;;;;5.83;3.47;;;20.70;48.90;;;;;;4399516;32;20173;-65
2022/01/25 10:41:47;;;;;;;5.80;3.95;;;20.80;48.90;;;;;;4399364;32;20074;-65
2022/01/25 10:44:13;;;;;;;9.70;3.28;;;20.80;48.80;;;;;;4399197;32;20099;-65
2022/01/25 10:46:40;;;;;;;7.57;3.42;;;20.80;48.70;;;;;;4399402;32;20098;-65
2022/01/25 10:49:13;;;;;;;5.57;3.50;;;20.80;48.70;;;;;;4399182;32;20083;-65
2022/01/25 10:51:48;;;;;;;5.32;3.20;;;20.80;48.70;;;;;;4399434;32;20087;-65
2022/01/25 10:54:24;;;;;;;5.47;3.47;;;20.80;48.70;;;;;;4399414;32;20068;-65
2022/01/25 10:56:54;;;;;;;4.43;3.47;;;20.80;48.80;;;;;;4399172;32;20095;-64
2022/01/25 10:59:26;;;;;;;5.03;3.42;;;20.70;48.70;;;;;;4398645;32;20101;-65
2022/01/25 11:01:59;;;;;;;6.18;2.88;;;20.80;48.80;;;;;;4399524;32;20388;-65
2022/01/25 11:04:31;;;;;;;4.93;3.25;;;20.70;48.70;;;;;;4399091;32;20067;-65
2022/01/25 11:07:00;;;;;;;3.95;3.25;;;20.80;48.80;;;;;;4399479;32;20071;-65
2022/01/25 11:09:30;;;;;;;4.53;3.13;;;20.80;48.80;;;;;;4399161;32;20506;-65
2022/01/25 11:11:56;;;;;;;3.80;3.17;;;20.70;48.80;;;;;;4398807;32;20091;-65
2022/01/25 11:17:08;;;;;;;5.72;3.15;;;20.80;48.90;;;;;;4399378;32;20498;-65
2022/01/25 11:19:33;;;;;;;4.22;2.88;;;20.70;48.80;;;;;;4398677;32;20192;-65
2022/01/25 11:22:00;;;;;;;3.28;2.97;;;20.70;48.80;;;;;;4398939;32;20596;-65
2022/01/25 11:24:29;;;;;;;4.78;3.05;;;20.70;48.80;;;;;;4398623;32;20091;-65
2022/01/25 11:26:56;;;;;;;4.32;3.00;;;20.70;48.80;;;;;;4398891;32;20510;-65
2022/01/25 11:29:22;;;;;;;3.67;3.00;;;20.70;48.80;;;;;;4398613;32;20130;-65
2022/01/25 11:31:52;;;;;;;4.25;2.90;;;20.80;48.90;;;;;;4398473;32;20075;-64
2022/01/25 11:34:23;;;;;;;4.53;2.78;;;20.80;48.80;;;;;;4398808;32;20089;-64
2022/01/25 11:36:55;;;;;;;7.75;5.00;;;20.70;48.70;;;;;;4399029;32;20078;-65
2022/01/25 11:39:23;;;;;;;6.10;4.03;;;20.80;48.70;;;;;;4398472;32;20236;-65
2022/01/25 11:41:50;;;;;;;8.50;3.75;;;20.70;48.60;;;;;;4398688;32;20165;-65
2022/01/25 11:44:22;;;;;;;9.43;4.72;;;20.70;48.40;;;;;;4397489;32;20095;-66
2022/01/25 11:46:54;;;;;;;11.68;4.30;;;20.70;48.50;;;;;;4398761;32;20067;-65
2022/01/25 11:49:22;;;;;;;9.27;4.22;;;20.70;48.50;;;;;;4386753;32;20126;-65
2022/01/25 11:52:12;;;;;;;6.43;4.72;;;20.70;48.60;;;;;;4384924;32;20098;-65
2022/01/25 11:54:40;;;;;;;8.73;4.10;;;20.70;48.70;;;;;;4384613;32;20213;-65
2022/01/25 11:57:10;;;;;;;5.65;3.97;;;20.70;48.70;;;;;;4384572;32;20091;-65
2022/01/25 11:59:37;;;;;;;6.60;3.75;;;20.60;48.70;;;;;;4384489;32;20244;-65
2022/01/25 12:02:04;;;;;;;5.28;3.83;;;20.70;48.80;;;;;;4375500;32;20434;-65
2022/01/25 12:04:30;;;;;;;7.57;4.35;;;20.60;48.80;;;;;;4396983;32;20140;-65
2022/01/25 12:07:08;;;;;;;6.72;3.65;;;20.70;48.90;;;;;;4384130;32;20079;-65
2022/01/25 12:09:49;;;;;;;6.90;4.35;;;20.70;49.00;;;;;;4393529;32;20158;-65
2022/01/25 12:12:17;;;;;;;6.75;3.65;;;20.60;49.00;;;;;;4395449;32;20229;-65
2022/01/25 12:14:50;;;;;;;6.82;3.80;;;20.70;49.10;;;;;;4397162;32;20074;-65
2022/01/25 12:17:32;;;;;;;5.82;3.47;;;20.60;49.20;;;;;;4396736;32;20115;-64
2022/01/25 12:20:02;;;;;;;7.85;3.55;;;20.70;49.30;;;;;;4398087;32;20079;-65
2022/01/25 12:22:40;;;;;;;4.50;3.55;;;20.60;49.30;;;;;;4398038;32;20142;-65
2022/01/25 12:27:59;;;;;;;13.70;3.70;;;20.60;49.40;;;;;;4398227;32;20114;-64
2022/01/25 12:30:43;;;;;;;8.40;3.72;;;20.70;49.50;;;;;;4398386;32;20079;-64
2022/01/25 12:33:28;;;;;;;39.13;5.07;;;20.70;49.60;;;;;;4398535;32;20075;-64
2022/01/25 12:36:00;;;;;;;52.83;5.20;;;20.70;49.60;;;;;;4398498;32;20076;-64
2022/01/25 12:38:39;;;;;;;48.50;5.47;;;20.70;49.60;;;;;;4398037;32;20110;-64
2022/01/25 12:41:10;;;;;;;37.20;3.95;;;20.70;49.70;;;;;;4398347;32;20430;-64
2022/01/25 12:43:38;;;;;;;33.80;4.38;;;20.70;49.70;;;;;;4397928;32;20115;-64
2022/01/25 12:46:20;;;;;;;39.72;4.65;;;20.70;49.90;;;;;;4397504;32;20221;-63
2022/01/25 12:48:49;;;;;;;30.48;5.05;;;20.70;49.90;;;;;;4397135;32;20151;-64
2022/01/25 12:51:21;;;;;;;46.88;5.93;;;20.70;49.90;;;;;;4397347;32;20395;-63
2022/01/25 12:53:50;;;;;;;19.83;5.70;;;20.70;49.90;;;;;;4397613;32;20094;-64
2022/01/25 12:56:21;;;;;;;24.13;8.20;;;20.70;49.60;;;;;;4400632;32;20438;-63
2022/01/25 12:58:50;;;;;;;19.58;7.13;;;20.70;49.30;;;;;;4391582;32;20088;-63
2022/01/25 13:01:19;;;;;;;13.50;6.55;;;20.70;49.30;;;;;;4385252;32;20086;-64
2022/01/25 13:03:47;;;;;;;22.70;6.28;;;20.70;49.30;;;;;;4385838;32;20087;-63
2022/01/25 13:06:22;;;;;;;11.63;5.82;;;20.70;49.30;;;;;;4381255;32;20123;-63
2022/01/25 13:09:02;;;;;;;18.25;5.78;;;20.70;49.40;;;;;;4386795;32;20206;-64
2022/01/25 13:11:49;;;;;;;15.10;5.05;;;20.70;49.40;;;;;;4386878;32;20153;-64
2022/01/25 13:14:34;;;;;;;15.27;5.10;;;20.70;49.40;;;;;;4383731;32;20430;-63
2022/01/25 13:17:01;;;;;;;14.63;5.18;;;20.80;49.50;;;;;;4387131;32;20502;-64
2022/01/25 13:19:37;;;;;;;18.20;4.53;;;20.80;49.60;;;;;;4386851;32;20165;-64
2022/01/25 13:22:08;;;;;;;11.18;4.80;;;20.80;49.60;;;;;;4387048;32;20071;-64
2022/01/25 13:24:46;;;;;;;10.40;4.22;;;20.80;49.60;;;;;;4397678;32;20095;-64
2022/01/25 13:27:14;;;;;;;12.68;4.18;;;20.80;49.70;;;;;;4399531;32;20141;-64
2022/01/25 13:32:43;;;;;;;8.15;4.05;;;20.80;49.70;;;;;;4399890;32;20198;-63
2022/01/25 13:35:23;;;;;;;7.95;4.03;;;20.80;49.80;;;;;;4386934;32;20083;-63
2022/01/25 13:38:09;;;;;;;11.75;3.72;;;20.80;49.80;;;;;;4399722;32;20093;-63
2022/01/25 13:41:04;;;;;;;12.82;3.88;;;20.80;50.00;;;;;;4400187;32;20530;-63
2022/01/25 13:46:15;;;;;;;13.10;4.00;;;20.80;50.00;;;;;;4400710;32;20234;-64
2022/01/25 13:48:41;;;;;;;;;;;20.80;50.10;;;;;;4400565;32;20162;-64
2022/01/25 13:51:11;;;;;;;16.90;3.83;;;20.80;50.20;;;;;;4400284;32;19979;-63
2022/01/25 13:53:38;;;;;;;37.63;5.22;;;20.80;50.30;;;;;;4399985;32;20098;-63
2022/01/25 13:56:06;;;;;;;25.10;4.60;;;20.80;50.30;;;;;;4399789;32;20083;-64
2022/01/25 13:58:40;;;;;;;16.95;6.20;;;20.80;50.20;;;;;;4390180;32;20134;-64
2022/01/25 14:01:08;;;;;;;34.70;9.23;;;20.80;50.10;;;;;;4385349;32;20098;-64
2022/01/25 14:03:52;;;;;;;30.52;10.63;;;20.80;49.80;;;;;;4384584;32;20090;-64
2022/01/25 14:06:26;;;;;;;20.52;9.88;;;20.70;49.10;;;;;;4384516;32;20085;-64
2022/01/25 14:09:17;;;;;;;15.18;9.40;;;20.70;48.90;;;;;;4384879;32;20127;-64
2022/01/25 14:25:32;;;;;;;15.68;5.60;;;20.80;49.80;;;;;;4384586;32;20071;-64
2022/01/25 14:28:11;;;;;;;15.75;5.25;;;20.80;49.80;;;;;;4389775;32;20217;-64
2022/01/25 14:30:48;;;;;;;8.27;5.30;;;20.80;49.80;;;;;;4391019;32;20166;-64
2022/01/25 14:33:23;;;;;;;10.88;5.22;;;20.80;49.80;;;;;;4390778;32;20217;-64
2022/01/25 14:35:56;;;;;;;18.17;5.72;;;20.80;49.70;;;;;;4391134;32;20071;-65
2022/01/25 14:38:30;;;;;;;13.25;5.30;;;20.80;49.50;;;;;;4390909;32;20234;-64
2022/01/25 14:41:05;;;;;;;11.63;5.32;;;20.90;49.50;;;;;;4390427;32;20163;-64
2022/01/25 14:43:47;;;;;;;11.48;4.72;;;20.90;49.40;;;;;;4390419;32;20213;-64
2022/01/25 14:46:26;;;;;;;10.43;4.82;;;20.90;49.40;;;;;;4391509;32;20090;-65
2022/01/25 14:49:16;;;;;;;8.55;4.63;;;20.90;49.40;;;;;;4391155;32;20157;-64
2022/01/25 14:51:49;;;;;;;8.73;5.05;;;20.90;49.30;;;;;;4391314;32;20222;-64
2022/01/25 14:54:18;;;;;;;7.10;4.55;;;20.90;49.30;;;;;;4394461;32;20142;-64
2022/01/25 14:56:53;;;;;;;8.52;4.78;;;20.90;49.20;;;;;;4389384;32;20075;-64
2022/01/25 14:59:33;;;;;;;11.25;4.30;;;20.90;49.20;;;;;;4390830;32;20157;-64
2022/01/25 15:02:05;;;;;;;14.00;4.32;;;20.90;49.10;;;;;;4390469;32;20456;-64
2022/01/25 15:04:37;;;;;;;9.80;4.20;;;20.90;49.10;;;;;;4389466;32;20089;-64
2022/01/25 15:07:20;;;;;;;7.50;4.55;;;20.90;49.10;;;;;;4389243;32;20099;-64
2022/01/25 15:09:49;;;;;;;8.38;3.88;;;21.00;49.10;;;;;;4389279;32;20143;-64